KFMN

Four Corners Regional Airport

Farmington, New Mexico, USA
METAR KFMN 150253Z 11005KT 10SM CLR 28/04 A3002 RMK AO2 SLP099 T02780044 53010
Observed Flight Rules
Aug-15 @ 02:53 UTC (43 minutes ago) Visual Flight Rules
Wind Visibility Clouds
110° at 5 knots 10 miles
  • Clear skies
Temperatures Readings
Current 28°C / 82°F
Dewpoint 4°C / 39°F
Humidity 21%
Altimeter 30.02" Hg
Pressure 1009.9 hPa
Elevation 1685
METAR KFMN 150253Z 11005KT 10SM CLR 28/04 A3002 RMK AO2 SLP099 T02780044 53010
Observed Flight Rules
Aug-15 @ 02:53 UTC
(43 minutes ago)
VFR
Wind Visibility
110° at 5 knots 10 miles
Clouds
  • Clear skies
Temperature Dewpoint
28°C / 82°F 4°C / 39°F
Humidity Altimeter Pressure
21% 30.02" Hg 1009.9 hPa